sensor_id;sensor_type;location;lat;lon;timestamp;pressure;altitude;pressure_sealevel;temperature;humidity
28510;BME280;15723;55.684;37.928;2023-01-29T00:01:57;100302.25;;;0.96;75.06
28510;BME280;15723;55.684;37.928;2023-01-29T00:04:24;100290.78;;;0.91;75.94
28510;BME280;15723;55.684;37.928;2023-01-29T00:06:50;100297.13;;;0.85;76.14
28510;BME280;15723;55.684;37.928;2023-01-29T00:09:16;100290.97;;;0.80;76.07
28510;BME280;15723;55.684;37.928;2023-01-29T00:11:42;100289.47;;;0.66;76.12
28510;BME280;15723;55.684;37.928;2023-01-29T00:14:09;100286.91;;;0.59;76.92
28510;BME280;15723;55.684;37.928;2023-01-29T00:16:35;100292.09;;;0.16;77.38
28510;BME280;15723;55.684;37.928;2023-01-29T00:19:02;100293.13;;;0.60;77.40
28510;BME280;15723;55.684;37.928;2023-01-29T00:21:28;100285.00;;;0.66;76.34
28510;BME280;15723;55.684;37.928;2023-01-29T00:23:56;100296.03;;;0.48;76.92
28510;BME280;15723;55.684;37.928;2023-01-29T00:26:23;100294.66;;;0.75;76.11
28510;BME280;15723;55.684;37.928;2023-01-29T00:28:49;100304.22;;;0.36;76.82
28510;BME280;15723;55.684;37.928;2023-01-29T00:31:18;100285.75;;;0.73;76.25
28510;BME280;15723;55.684;37.928;2023-01-29T00:33:45;100290.03;;;0.83;76.30
28510;BME280;15723;55.684;37.928;2023-01-29T00:36:13;100278.84;;;0.61;75.98
28510;BME280;15723;55.684;37.928;2023-01-29T00:38:40;100274.50;;;0.55;76.61
28510;BME280;15723;55.684;37.928;2023-01-29T00:43:51;100264.53;;;1.10;75.61
28510;BME280;15723;55.684;37.928;2023-01-29T00:46:36;100262.03;;;0.56;76.55
28510;BME280;15723;55.684;37.928;2023-01-29T00:49:03;100261.69;;;0.76;76.10
28510;BME280;15723;55.684;37.928;2023-01-29T00:51:29;100261.44;;;0.88;75.36
28510;BME280;15723;55.684;37.928;2023-01-29T00:53:56;100264.88;;;0.93;75.03
28510;BME280;15723;55.684;37.928;2023-01-29T00:56:24;100259.53;;;0.93;74.91
28510;BME280;15723;55.684;37.928;2023-01-29T00:58:50;100258.28;;;1.12;74.35
28510;BME280;15723;55.684;37.928;2023-01-29T01:01:16;100261.06;;;0.60;76.05
28510;BME280;15723;55.684;37.928;2023-01-29T01:04:03;100252.94;;;1.12;74.82
28510;BME280;15723;55.684;37.928;2023-01-29T01:06:29;100254.81;;;0.61;75.79
28510;BME280;15723;55.684;37.928;2023-01-29T01:08:55;100253.53;;;0.82;75.30
28510;BME280;15723;55.684;37.928;2023-01-29T01:11:41;100253.28;;;0.94;75.14
28510;BME280;15723;55.684;37.928;2023-01-29T01:14:08;100249.63;;;0.98;74.96
28510;BME280;15723;55.684;37.928;2023-01-29T01:16:34;100254.25;;;0.90;74.68
28510;BME280;15723;55.684;37.928;2023-01-29T01:19:02;100249.97;;;0.83;74.50
28510;BME280;15723;55.684;37.928;2023-01-29T01:21:28;100243.41;;;0.98;74.12
28510;BME280;15723;55.684;37.928;2023-01-29T01:23:54;100245.84;;;1.08;73.17
28510;BME280;15723;55.684;37.928;2023-01-29T01:26:20;100246.78;;;1.07;72.56
28510;BME280;15723;55.684;37.928;2023-01-29T01:28:47;100242.91;;;1.22;72.02
28510;BME280;15723;55.684;37.928;2023-01-29T01:31:13;100248.91;;;0.90;72.55
28510;BME280;15723;55.684;37.928;2023-01-29T01:33:40;100253.66;;;1.20;72.85
28510;BME280;15723;55.684;37.928;2023-01-29T01:36:07;100251.25;;;1.07;73.17
28510;BME280;15723;55.684;37.928;2023-01-29T01:38:38;100257.13;;;1.24;72.50
28510;BME280;15723;55.684;37.928;2023-01-29T01:41:11;100246.28;;;0.88;71.49
28510;BME280;15723;55.684;37.928;2023-01-29T01:43:55;100241.09;;;0.81;71.82
28510;BME280;15723;55.684;37.928;2023-01-29T01:46:24;100243.97;;;0.69;72.80
28510;BME280;15723;55.684;37.928;2023-01-29T01:49:15;100243.44;;;0.96;71.68
28510;BME280;15723;55.684;37.928;2023-01-29T01:51:46;100243.63;;;0.41;72.58
28510;BME280;15723;55.684;37.928;2023-01-29T01:54:19;100237.38;;;0.42;72.05
28510;BME280;15723;55.684;37.928;2023-01-29T01:56:52;100233.19;;;0.25;73.12
28510;BME280;15723;55.684;37.928;2023-01-29T01:59:21;100227.16;;;0.63;71.91
28510;BME280;15723;55.684;37.928;2023-01-29T02:01:50;100230.31;;;0.85;71.84
28510;BME280;15723;55.684;37.928;2023-01-29T02:04:22;100236.19;;;1.03;70.50
28510;BME280;15723;55.684;37.928;2023-01-29T02:07:10;100222.03;;;0.53;72.53
28510;BME280;15723;55.684;37.928;2023-01-29T02:10:05;100218.28;;;0.61;71.78
28510;BME280;15723;55.684;37.928;2023-01-29T02:12:33;100218.03;;;0.75;72.15
28510;BME280;15723;55.684;37.928;2023-01-29T02:15:01;100218.56;;;0.48;72.38
28510;BME280;15723;55.684;37.928;2023-01-29T02:17:29;100213.09;;;0.54;72.92
28510;BME280;15723;55.684;37.928;2023-01-29T02:20:20;100201.66;;;0.47;72.36
28510;BME280;15723;55.684;37.928;2023-01-29T02:29:03;100208.09;;;0.34;72.26
28510;BME280;15723;55.684;37.928;2023-01-29T02:34:45;100193.59;;;0.49;71.47
28510;BME280;15723;55.684;37.928;2023-01-29T02:37:37;100197.59;;;0.71;71.12
28510;BME280;15723;55.684;37.928;2023-01-29T02:40:35;100196.22;;;0.52;71.09
28510;BME280;15723;55.684;37.928;2023-01-29T02:43:18;100189.53;;;0.74;70.28
28510;BME280;15723;55.684;37.928;2023-01-29T02:46:15;100194.03;;;0.24;69.95
28510;BME280;15723;55.684;37.928;2023-01-29T02:48:54;100189.00;;;0.09;70.60
28510;BME280;15723;55.684;37.928;2023-01-29T02:51:42;100179.91;;;0.19;69.93
28510;BME280;15723;55.684;37.928;2023-01-29T02:54:22;100181.63;;;0.22;69.83
28510;BME280;15723;55.684;37.928;2023-01-29T02:56:58;100175.91;;;0.43;68.58
28510;BME280;15723;55.684;37.928;2023-01-29T02:59:35;100182.53;;;0.21;68.12
28510;BME280;15723;55.684;37.928;2023-01-29T03:02:11;100176.41;;;0.16;67.93
28510;BME280;15723;55.684;37.928;2023-01-29T03:04:43;100181.13;;;0.02;68.59
28510;BME280;15723;55.684;37.928;2023-01-29T03:07:15;100173.41;;;-0.17;68.66
28510;BME280;15723;55.684;37.928;2023-01-29T03:09:50;100155.50;;;-0.10;68.42
28510;BME280;15723;55.684;37.928;2023-01-29T03:12:24;100155.09;;;0.14;67.94
28510;BME280;15723;55.684;37.928;2023-01-29T03:15:17;100157.13;;;0.00;68.07
28510;BME280;15723;55.684;37.928;2023-01-29T03:18:20;100159.22;;;-0.77;68.15
28510;BME280;15723;55.684;37.928;2023-01-29T03:20:54;100157.03;;;-0.49;68.32
28510;BME280;15723;55.684;37.928;2023-01-29T03:23:28;100161.66;;;-0.05;68.07
28510;BME280;15723;55.684;37.928;2023-01-29T03:26:17;100150.31;;;-0.18;67.61
28510;BME280;15723;55.684;37.928;2023-01-29T03:29:05;100144.72;;;-0.04;67.69
28510;BME280;15723;55.684;37.928;2023-01-29T03:31:54;100136.19;;;0.25;67.03
28510;BME280;15723;55.684;37.928;2023-01-29T03:34:40;100137.47;;;0.06;67.88
28510;BME280;15723;55.684;37.928;2023-01-29T03:37:21;100124.25;;;-0.04;67.65
28510;BME280;15723;55.684;37.928;2023-01-29T03:39:49;100131.47;;;-0.09;68.75
28510;BME280;15723;55.684;37.928;2023-01-29T03:42:18;100116.28;;;-0.05;68.62
28510;BME280;15723;55.684;37.928;2023-01-29T03:45:24;100122.63;;;-0.12;68.74
28510;BME280;15723;55.684;37.928;2023-01-29T03:48:28;100112.16;;;-0.23;68.75
28510;BME280;15723;55.684;37.928;2023-01-29T03:54:06;100101.78;;;0.10;68.42
28510;BME280;15723;55.684;37.928;2023-01-29T03:56:43;100100.94;;;0.08;68.98
28510;BME280;15723;55.684;37.928;2023-01-29T03:59:20;100094.25;;;-0.16;68.30
28510;BME280;15723;55.684;37.928;2023-01-29T04:02:15;100087.25;;;-0.22;68.55
28510;BME280;15723;55.684;37.928;2023-01-29T04:04:46;100086.81;;;0.03;67.97
28510;BME280;15723;55.684;37.928;2023-01-29T04:07:19;100088.38;;;0.13;68.01
28510;BME280;15723;55.684;37.928;2023-01-29T04:10:04;100086.91;;;-0.05;67.15
28510;BME280;15723;55.684;37.928;2023-01-29T04:12:42;100071.59;;;0.06;67.21
28510;BME280;15723;55.684;37.928;2023-01-29T04:15:13;100075.28;;;0.01;67.76
28510;BME280;15723;55.684;37.928;2023-01-29T04:17:48;100070.13;;;-0.10;67.98
28510;BME280;15723;55.684;37.928;2023-01-29T04:20:41;100069.88;;;0.04;67.66
28510;BME280;15723;55.684;37.928;2023-01-29T04:23:25;100063.44;;;0.14;67.21
28510;BME280;15723;55.684;37.928;2023-01-29T04:31:22;100061.66;;;0.14;68.75
28510;BME280;15723;55.684;37.928;2023-01-29T04:39:24;100058.41;;;-0.03;69.61
28510;BME280;15723;55.684;37.928;2023-01-29T04:42:28;100054.53;;;-0.32;69.41
28510;BME280;15723;55.684;37.928;2023-01-29T04:45:00;100055.06;;;-0.14;69.30
28510;BME280;15723;55.684;37.928;2023-01-29T04:47:39;100051.56;;;-0.16;69.84
28510;BME280;15723;55.684;37.928;2023-01-29T04:50:43;100047.38;;;-0.29;68.71
28510;BME280;15723;55.684;37.928;2023-01-29T04:53:17;100052.47;;;0.27;68.61
28510;BME280;15723;55.684;37.928;2023-01-29T04:56:05;100049.00;;;-0.22;68.85
28510;BME280;15723;55.684;37.928;2023-01-29T04:58:38;100045.53;;;-0.26;69.02
28510;BME280;15723;55.684;37.928;2023-01-29T05:01:10;100051.25;;;0.01;69.00
28510;BME280;15723;55.684;37.928;2023-01-29T05:03:40;100051.22;;;0.02;68.53
28510;BME280;15723;55.684;37.928;2023-01-29T05:06:09;100047.78;;;-0.05;69.27
28510;BME280;15723;55.684;37.928;2023-01-29T05:08:37;100041.34;;;-0.42;70.14
28510;BME280;15723;55.684;37.928;2023-01-29T05:11:04;100038.22;;;-0.16;70.52
28510;BME280;15723;55.684;37.928;2023-01-29T05:13:33;100034.66;;;-0.17;70.05
28510;BME280;15723;55.684;37.928;2023-01-29T05:18:31;100033.66;;;-0.11;69.90
28510;BME280;15723;55.684;37.928;2023-01-29T05:21:02;100036.97;;;-0.46;70.41
28510;BME280;15723;55.684;37.928;2023-01-29T05:23:30;100034.06;;;-0.31;70.46
28510;BME280;15723;55.684;37.928;2023-01-29T05:25:56;100034.72;;;-0.20;69.27
28510;BME280;15723;55.684;37.928;2023-01-29T05:28:22;100030.31;;;-0.21;69.29
28510;BME280;15723;55.684;37.928;2023-01-29T05:30:51;100041.47;;;-0.01;69.67
28510;BME280;15723;55.684;37.928;2023-01-29T05:33:28;100044.13;;;-0.48;69.62
28510;BME280;15723;55.684;37.928;2023-01-29T05:35:57;100051.94;;;-0.38;68.88
28510;BME280;15723;55.684;37.928;2023-01-29T05:38:24;100040.53;;;-0.46;69.91
28510;BME280;15723;55.684;37.928;2023-01-29T05:40:50;100038.91;;;-0.07;68.34
28510;BME280;15723;55.684;37.928;2023-01-29T05:43:23;100046.50;;;-0.30;68.79
28510;BME280;15723;55.684;37.928;2023-01-29T05:45:55;100046.41;;;-0.25;68.98
28510;BME280;15723;55.684;37.928;2023-01-29T05:48:22;100045.41;;;-0.20;69.98
28510;BME280;15723;55.684;37.928;2023-01-29T05:50:48;100042.34;;;-0.48;69.39
28510;BME280;15723;55.684;37.928;2023-01-29T05:53:15;100042.22;;;-0.42;69.63
28510;BME280;15723;55.684;37.928;2023-01-29T05:55:45;100036.19;;;-0.51;69.72
28510;BME280;15723;55.684;37.928;2023-01-29T05:58:12;100039.94;;;-0.63;70.84
28510;BME280;15723;55.684;37.928;2023-01-29T06:00:39;100040.44;;;-0.41;69.25
28510;BME280;15723;55.684;37.928;2023-01-29T06:03:06;100047.41;;;-0.31;69.89
28510;BME280;15723;55.684;37.928;2023-01-29T06:05:32;100052.63;;;-0.25;69.88
28510;BME280;15723;55.684;37.928;2023-01-29T06:07:58;100040.16;;;-0.24;69.14
28510;BME280;15723;55.684;37.928;2023-01-29T06:10:24;100047.56;;;-0.42;69.92
28510;BME280;15723;55.684;37.928;2023-01-29T06:12:50;100044.00;;;-0.42;69.17
28510;BME280;15723;55.684;37.928;2023-01-29T06:15:17;100044.88;;;0.08;68.43
28510;BME280;15723;55.684;37.928;2023-01-29T06:17:44;100050.56;;;-0.11;68.76
28510;BME280;15723;55.684;37.928;2023-01-29T06:20:12;100040.00;;;-0.17;68.97
28510;BME280;15723;55.684;37.928;2023-01-29T06:22:38;100042.44;;;-0.05;68.51
28510;BME280;15723;55.684;37.928;2023-01-29T06:25:05;100034.00;;;-0.28;68.97
28510;BME280;15723;55.684;37.928;2023-01-29T06:27:31;100029.06;;;-0.51;69.09
28510;BME280;15723;55.684;37.928;2023-01-29T06:29:57;100035.63;;;-0.21;69.24
28510;BME280;15723;55.684;37.928;2023-01-29T06:32:23;100037.63;;;-0.32;69.40
28510;BME280;15723;55.684;37.928;2023-01-29T06:34:50;100034.78;;;-0.23;69.17
28510;BME280;15723;55.684;37.928;2023-01-29T06:37:18;100026.88;;;-0.27;69.26
28510;BME280;15723;55.684;37.928;2023-01-29T06:39:44;100031.94;;;-0.14;68.32
28510;BME280;15723;55.684;37.928;2023-01-29T06:42:10;100023.97;;;-0.15;68.75
28510;BME280;15723;55.684;37.928;2023-01-29T06:44:36;100033.72;;;-0.14;68.84
28510;BME280;15723;55.684;37.928;2023-01-29T06:47:03;100026.31;;;0.02;68.84
28510;BME280;15723;55.684;37.928;2023-01-29T06:49:29;100027.75;;;0.18;68.43
28510;BME280;15723;55.684;37.928;2023-01-29T06:51:55;100024.66;;;-0.06;68.12
28510;BME280;15723;55.684;37.928;2023-01-29T06:54:22;100023.31;;;0.18;68.27
28510;BME280;15723;55.684;37.928;2023-01-29T06:56:48;100015.78;;;-0.06;68.63
28510;BME280;15723;55.684;37.928;2023-01-29T06:59:14;100019.50;;;-0.15;67.79
28510;BME280;15723;55.684;37.928;2023-01-29T07:01:40;100025.44;;;0.01;67.46
28510;BME280;15723;55.684;37.928;2023-01-29T07:04:10;100009.97;;;0.18;66.59
28510;BME280;15723;55.684;37.928;2023-01-29T07:06:36;100006.00;;;0.36;66.10
28510;BME280;15723;55.684;37.928;2023-01-29T07:09:03;100006.66;;;0.06;67.36
28510;BME280;15723;55.684;37.928;2023-01-29T07:11:29;100008.16;;;0.19;67.82
28510;BME280;15723;55.684;37.928;2023-01-29T07:13:56;100001.28;;;0.09;67.46
28510;BME280;15723;55.684;37.928;2023-01-29T07:16:22;100001.19;;;0.12;67.59
28510;BME280;15723;55.684;37.928;2023-01-29T07:18:49;99993.91;;;0.20;67.76
28510;BME280;15723;55.684;37.928;2023-01-29T07:21:16;99993.38;;;0.03;68.20
28510;BME280;15723;55.684;37.928;2023-01-29T07:23:42;99999.09;;;0.26;67.13
28510;BME280;15723;55.684;37.928;2023-01-29T07:26:09;100001.69;;;0.30;67.80
28510;BME280;15723;55.684;37.928;2023-01-29T07:28:37;99989.06;;;-0.05;68.18
28510;BME280;15723;55.684;37.928;2023-01-29T07:31:04;99995.25;;;0.41;68.11
28510;BME280;15723;55.684;37.928;2023-01-29T07:33:31;99994.03;;;0.14;68.29
28510;BME280;15723;55.684;37.928;2023-01-29T07:35:57;99992.56;;;-0.03;68.90
28510;BME280;15723;55.684;37.928;2023-01-29T07:38:24;99996.50;;;-0.20;68.18
28510;BME280;15723;55.684;37.928;2023-01-29T07:40:51;99998.41;;;0.18;67.75
28510;BME280;15723;55.684;37.928;2023-01-29T07:43:17;99994.81;;;0.19;68.73
28510;BME280;15723;55.684;37.928;2023-01-29T07:45:44;99997.69;;;0.10;68.38
28510;BME280;15723;55.684;37.928;2023-01-29T07:48:11;99991.66;;;0.00;67.48
28510;BME280;15723;55.684;37.928;2023-01-29T07:50:38;99991.38;;;0.54;67.60
28510;BME280;15723;55.684;37.928;2023-01-29T07:53:05;99994.63;;;0.28;67.14
28510;BME280;15723;55.684;37.928;2023-01-29T07:55:32;99989.66;;;0.51;67.11
28510;BME280;15723;55.684;37.928;2023-01-29T07:58:00;99985.63;;;0.32;66.98
28510;BME280;15723;55.684;37.928;2023-01-29T08:00:27;99994.56;;;0.31;66.98
28510;BME280;15723;55.684;37.928;2023-01-29T08:03:01;99991.50;;;0.49;66.76
28510;BME280;15723;55.684;37.928;2023-01-29T08:05:28;99986.72;;;0.23;67.58
28510;BME280;15723;55.684;37.928;2023-01-29T08:07:54;99979.78;;;0.15;67.74
28510;BME280;15723;55.684;37.928;2023-01-29T08:10:21;99971.81;;;0.53;67.51
28510;BME280;15723;55.684;37.928;2023-01-29T08:12:52;99974.31;;;0.61;67.52
28510;BME280;15723;55.684;37.928;2023-01-29T08:15:18;99976.03;;;0.63;66.72
28510;BME280;15723;55.684;37.928;2023-01-29T08:17:44;99963.88;;;0.50;65.45
28510;BME280;15723;55.684;37.928;2023-01-29T08:20:10;99964.38;;;0.27;66.17
28510;BME280;15723;55.684;37.928;2023-01-29T08:22:37;99956.81;;;0.48;66.30
28510;BME280;15723;55.684;37.928;2023-01-29T08:25:03;99961.19;;;0.50;66.34
28510;BME280;15723;55.684;37.928;2023-01-29T08:27:30;99951.25;;;0.57;67.19
28510;BME280;15723;55.684;37.928;2023-01-29T08:29:56;99945.72;;;0.65;66.72
28510;BME280;15723;55.684;37.928;2023-01-29T08:32:22;99938.72;;;0.96;65.30
28510;BME280;15723;55.684;37.928;2023-01-29T08:34:49;99938.69;;;1.32;64.55
28510;BME280;15723;55.684;37.928;2023-01-29T08:37:15;99935.00;;;0.66;65.93
28510;BME280;15723;55.684;37.928;2023-01-29T08:39:41;99947.97;;;0.83;67.26
28510;BME280;15723;55.684;37.928;2023-01-29T08:42:07;99940.63;;;0.91;66.32
28510;BME280;15723;55.684;37.928;2023-01-29T08:44:34;99943.34;;;0.89;65.95
28510;BME280;15723;55.684;37.928;2023-01-29T08:47:00;99956.78;;;0.86;65.70
28510;BME280;15723;55.684;37.928;2023-01-29T08:49:26;99945.47;;;1.11;64.71
28510;BME280;15723;55.684;37.928;2023-01-29T08:51:53;99944.88;;;1.00;64.43
28510;BME280;15723;55.684;37.928;2023-01-29T08:54:22;99936.66;;;1.07;64.86
28510;BME280;15723;55.684;37.928;2023-01-29T08:56:49;99945.34;;;0.81;66.83
28510;BME280;15723;55.684;37.928;2023-01-29T08:59:16;99940.91;;;0.80;65.97
28510;BME280;15723;55.684;37.928;2023-01-29T09:01:42;99928.63;;;0.72;65.29
28510;BME280;15723;55.684;37.928;2023-01-29T09:04:08;99928.38;;;0.82;65.63
28510;BME280;15723;55.684;37.928;2023-01-29T09:06:34;99931.66;;;0.93;65.00
28510;BME280;15723;55.684;37.928;2023-01-29T09:09:01;99925.94;;;0.72;65.21
28510;BME280;15723;55.684;37.928;2023-01-29T09:11:27;99920.03;;;0.96;64.49
28510;BME280;15723;55.684;37.928;2023-01-29T09:13:53;99921.03;;;1.26;64.28
28510;BME280;15723;55.684;37.928;2023-01-29T09:16:19;99916.72;;;1.20;64.11
28510;BME280;15723;55.684;37.928;2023-01-29T09:18:46;99920.88;;;0.97;65.66
28510;BME280;15723;55.684;37.928;2023-01-29T09:21:12;99912.34;;;0.82;65.15
28510;BME280;15723;55.684;37.928;2023-01-29T09:23:38;99917.44;;;1.27;64.02
28510;BME280;15723;55.684;37.928;2023-01-29T09:26:06;99914.13;;;1.17;64.31
28510;BME280;15723;55.684;37.928;2023-01-29T09:28:33;99911.69;;;1.41;63.29
28510;BME280;15723;55.684;37.928;2023-01-29T09:31:01;99916.81;;;1.17;63.20
28510;BME280;15723;55.684;37.928;2023-01-29T09:33:28;99915.06;;;1.49;63.22
28510;BME280;15723;55.684;37.928;2023-01-29T09:35:55;99904.91;;;0.95;62.70
28510;BME280;15723;55.684;37.928;2023-01-29T09:38:22;99908.69;;;1.20;62.36
28510;BME280;15723;55.684;37.928;2023-01-29T09:43:46;99884.97;;;1.07;61.91
28510;BME280;15723;55.684;37.928;2023-01-29T09:46:41;99871.06;;;1.28;60.82
28510;BME280;15723;55.684;37.928;2023-01-29T09:49:24;99865.72;;;0.94;60.82
28510;BME280;15723;55.684;37.928;2023-01-29T09:51:56;99868.72;;;0.82;61.27
28510;BME280;15723;55.684;37.928;2023-01-29T09:56:54;99865.09;;;1.18;60.78
28510;BME280;15723;55.684;37.928;2023-01-29T09:59:23;99861.75;;;1.09;61.23
28510;BME280;15723;55.684;37.928;2023-01-29T10:02:02;99857.91;;;1.20;60.84
28510;BME280;15723;55.684;37.928;2023-01-29T10:10:22;99858.72;;;1.22;59.87
28510;BME280;15723;55.684;37.928;2023-01-29T10:21:14;99837.44;;;1.19;59.58
28510;BME280;15723;55.684;37.928;2023-01-29T10:26:46;99822.38;;;1.46;60.31
28510;BME280;15723;55.684;37.928;2023-01-29T10:29:17;99812.56;;;1.16;59.73
28510;BME280;15723;55.684;37.928;2023-01-29T10:31:45;99808.19;;;1.44;58.47
28510;BME280;15723;55.684;37.928;2023-01-29T10:34:28;99802.69;;;1.50;57.88
28510;BME280;15723;55.684;37.928;2023-01-29T10:36:56;99799.50;;;1.36;59.12
28510;BME280;15723;55.684;37.928;2023-01-29T10:39:24;99792.66;;;1.26;58.79
28510;BME280;15723;55.684;37.928;2023-01-29T10:42:01;99783.78;;;1.25;58.57
28510;BME280;15723;55.684;37.928;2023-01-29T10:44:55;99782.06;;;1.54;58.43
28510;BME280;15723;55.684;37.928;2023-01-29T10:53:11;99760.66;;;0.92;59.69
28510;BME280;15723;55.684;37.928;2023-01-29T10:56:06;99752.69;;;1.21;59.34
28510;BME280;15723;55.684;37.928;2023-01-29T10:58:38;99744.84;;;1.15;59.26
28510;BME280;15723;55.684;37.928;2023-01-29T11:01:08;99742.56;;;1.33;59.39
28510;BME280;15723;55.684;37.928;2023-01-29T11:03:35;99730.09;;;1.32;59.27
28510;BME280;15723;55.684;37.928;2023-01-29T11:06:25;99742.34;;;1.09;60.22
28510;BME280;15723;55.684;37.928;2023-01-29T11:17:21;99730.06;;;1.33;58.40
28510;BME280;15723;55.684;37.928;2023-01-29T11:19:49;99733.16;;;1.49;58.12
28510;BME280;15723;55.684;37.928;2023-01-29T11:22:25;99738.09;;;1.33;58.75
28510;BME280;15723;55.684;37.928;2023-01-29T11:27:48;99728.91;;;1.42;58.52
28510;BME280;15723;55.684;37.928;2023-01-29T11:32:49;99725.63;;;1.32;58.81
28510;BME280;15723;55.684;37.928;2023-01-29T11:35:19;99730.63;;;1.15;59.17
28510;BME280;15723;55.684;37.928;2023-01-29T11:37:46;99730.16;;;0.99;59.77
28510;BME280;15723;55.684;37.928;2023-01-29T11:42:46;99718.31;;;1.08;58.87
28510;BME280;15723;55.684;37.928;2023-01-29T11:45:26;99724.69;;;1.04;58.77
28510;BME280;15723;55.684;37.928;2023-01-29T11:47:53;99720.72;;;1.18;59.41
28510;BME280;15723;55.684;37.928;2023-01-29T11:50:27;99715.47;;;1.43;57.92
28510;BME280;15723;55.684;37.928;2023-01-29T11:52:54;99715.91;;;1.30;58.15
28510;BME280;15723;55.684;37.928;2023-01-29T11:55:26;99719.88;;;1.16;57.68
28510;BME280;15723;55.684;37.928;2023-01-29T11:58:12;99702.59;;;1.28;57.40
28510;BME280;15723;55.684;37.928;2023-01-29T12:00:45;99719.78;;;1.19;57.95
28510;BME280;15723;55.684;37.928;2023-01-29T12:06:07;99707.97;;;1.56;57.96
28510;BME280;15723;55.684;37.928;2023-01-29T12:08:39;99703.66;;;1.52;58.02
28510;BME280;15723;55.684;37.928;2023-01-29T12:11:15;99704.47;;;1.24;59.07
28510;BME280;15723;55.684;37.928;2023-01-29T12:13:53;99704.00;;;1.10;59.43
28510;BME280;15723;55.684;37.928;2023-01-29T12:16:32;99699.72;;;1.34;58.74
28510;BME280;15723;55.684;37.928;2023-01-29T12:19:10;99710.44;;;1.03;59.73
28510;BME280;15723;55.684;37.928;2023-01-29T12:21:57;99705.03;;;1.05;59.27
28510;BME280;15723;55.684;37.928;2023-01-29T12:24:38;99698.00;;;1.02;60.03
28510;BME280;15723;55.684;37.928;2023-01-29T12:30:16;99702.81;;;1.20;59.53
28510;BME280;15723;55.684;37.928;2023-01-29T12:33:13;99699.59;;;1.08;60.75
28510;BME280;15723;55.684;37.928;2023-01-29T12:35:47;99702.22;;;1.09;60.97
28510;BME280;15723;55.684;37.928;2023-01-29T12:38:20;99692.75;;;0.99;60.88
28510;BME280;15723;55.684;37.928;2023-01-29T12:43:44;99693.88;;;1.21;61.07
28510;BME280;15723;55.684;37.928;2023-01-29T12:46:20;99685.81;;;1.23;60.77
28510;BME280;15723;55.684;37.928;2023-01-29T12:48:48;99696.25;;;1.01;61.15
28510;BME280;15723;55.684;37.928;2023-01-29T12:51:23;99691.34;;;0.86;61.22
28510;BME280;15723;55.684;37.928;2023-01-29T12:54:13;99679.69;;;0.88;61.19
28510;BME280;15723;55.684;37.928;2023-01-29T12:56:52;99695.38;;;1.01;61.42
28510;BME280;15723;55.684;37.928;2023-01-29T12:59:40;99688.25;;;0.69;61.37
28510;BME280;15723;55.684;37.928;2023-01-29T13:04:42;99683.84;;;0.99;61.77
28510;BME280;15723;55.684;37.928;2023-01-29T13:07:16;99696.81;;;0.81;60.87
28510;BME280;15723;55.684;37.928;2023-01-29T13:09:52;99689.53;;;1.17;60.96
28510;BME280;15723;55.684;37.928;2023-01-29T13:12:22;99682.59;;;1.40;60.52
28510;BME280;15723;55.684;37.928;2023-01-29T13:15:14;99691.53;;;0.80;61.87
28510;BME280;15723;55.684;37.928;2023-01-29T13:17:45;99688.06;;;0.76;61.97
28510;BME280;15723;55.684;37.928;2023-01-29T13:20:23;99688.66;;;0.55;62.55
28510;BME280;15723;55.684;37.928;2023-01-29T13:22:53;99683.25;;;0.89;61.81
28510;BME280;15723;55.684;37.928;2023-01-29T13:25:20;99681.72;;;0.80;63.10
28510;BME280;15723;55.684;37.928;2023-01-29T13:27:47;99673.38;;;0.91;63.17
28510;BME280;15723;55.684;37.928;2023-01-29T13:30:31;99673.94;;;1.02;62.21
28510;BME280;15723;55.684;37.928;2023-01-29T13:33:00;99676.38;;;0.80;61.57
28510;BME280;15723;55.684;37.928;2023-01-29T13:35:36;99668.88;;;0.93;62.12
28510;BME280;15723;55.684;37.928;2023-01-29T13:38:04;99673.28;;;0.63;62.24
28510;BME280;15723;55.684;37.928;2023-01-29T13:40:48;99651.91;;;0.63;61.49
28510;BME280;15723;55.684;37.928;2023-01-29T13:43:19;99670.00;;;0.53;62.91
28510;BME280;15723;55.684;37.928;2023-01-29T13:45:48;99664.34;;;0.64;61.87
28510;BME280;15723;55.684;37.928;2023-01-29T13:48:27;99662.72;;;0.58;61.98
28510;BME280;15723;55.684;37.928;2023-01-29T13:51:00;99662.56;;;0.65;62.50
28510;BME280;15723;55.684;37.928;2023-01-29T13:56:34;99661.84;;;0.58;63.01
28510;BME280;15723;55.684;37.928;2023-01-29T13:59:24;99656.75;;;0.81;63.08
28510;BME280;15723;55.684;37.928;2023-01-29T14:04:49;99650.56;;;0.79;62.96
28510;BME280;15723;55.684;37.928;2023-01-29T14:10:19;99652.28;;;1.11;62.66
28510;BME280;15723;55.684;37.928;2023-01-29T14:12:54;99662.38;;;0.71;63.03
28510;BME280;15723;55.684;37.928;2023-01-29T14:15:39;99650.78;;;0.72;63.23
28510;BME280;15723;55.684;37.928;2023-01-29T14:18:21;99656.16;;;0.39;63.72
28510;BME280;15723;55.684;37.928;2023-01-29T14:20:53;99654.91;;;0.83;62.74
28510;BME280;15723;55.684;37.928;2023-01-29T14:26:22;99647.44;;;0.94;64.28
28510;BME280;15723;55.684;37.928;2023-01-29T14:32:20;99632.75;;;0.49;64.50
28510;BME280;15723;55.684;37.928;2023-01-29T14:35:15;99629.94;;;0.84;63.62
28510;BME280;15723;55.684;37.928;2023-01-29T14:37:38;99621.59;;;0.64;63.70
28510;BME280;15723;55.684;37.928;2023-01-29T14:40:18;99619.16;;;0.87;63.44
28510;BME280;15723;55.684;37.928;2023-01-29T14:43:07;99627.53;;;0.44;64.48
28510;BME280;15723;55.684;37.928;2023-01-29T14:45:35;99636.50;;;0.42;64.74
28510;BME280;15723;55.684;37.928;2023-01-29T14:59:11;99631.16;;;0.42;65.97
28510;BME280;15723;55.684;37.928;2023-01-29T15:01:42;99622.16;;;0.46;66.45
28510;BME280;15723;55.684;37.928;2023-01-29T15:04:16;99618.94;;;0.64;65.32
28510;BME280;15723;55.684;37.928;2023-01-29T15:07:00;99622.31;;;0.40;65.96
28510;BME280;15723;55.684;37.928;2023-01-29T15:12:29;99627.03;;;0.61;66.91
28510;BME280;15723;55.684;37.928;2023-01-29T15:15:17;99623.59;;;0.57;65.38